Time;durP1;ratioP1;P1;durP2;ratioP2;P2;SDS_P1;SDS_P2;PMS_P1;PMS_P2;Temp;Humidity;BMP_temperature;BMP_pressure;BME280_temperature;BME280_humidity;BME280_pressure;Samples;Min_cycle;Max_cycle;Signal;HPM_P1;HPM_P2
2022/07/27 00:01:04;;;;;;;0.80;0.30;;;;;20.30;101891.00;;;;5049264;28;20281;-76
2022/07/27 00:03:32;;;;;;;2.20;0.30;;;;;20.30;101890.00;;;;5050055;28;20195;-76
2022/07/27 00:05:59;;;;;;;1.35;0.30;;;;;20.20;101890.00;;;;5049977;28;20200;-76
2022/07/27 00:08:28;;;;;;;1.70;0.35;;;;;20.20;101898.00;;;;5049763;28;20196;-76
2022/07/27 00:10:56;;;;;;;1.17;0.30;;;;;20.10;101886.00;;;;5049491;28;20196;-76
2022/07/27 00:13:23;;;;;;;0.82;0.30;;;;;20.10;101883.00;;;;5042021;28;20199;-76
2022/07/27 00:15:51;;;;;;;2.35;0.60;;;;;20.10;101885.00;;;;5049923;28;20223;-76
2022/07/27 00:18:18;;;;;;;1.63;0.38;;;;;20.10;101884.00;;;;5050188;28;20199;-76
2022/07/27 00:20:45;;;;;;;4.47;1.33;;;;;20.00;101886.00;;;;5049010;28;20195;-76
2022/07/27 00:23:13;;;;;;;1.10;0.50;;;;;20.00;101883.00;;;;5049250;28;20210;-77
2022/07/27 00:25:41;;;;;;;1.73;0.30;;;;;20.00;101885.00;;;;5049156;28;20277;-76
2022/07/27 00:28:09;;;;;;;1.70;0.38;;;;;20.00;101893.00;;;;5049106;28;20203;-76
2022/07/27 00:30:36;;;;;;;0.50;0.43;;;;;19.90;101882.00;;;;5047948;28;20200;-76
2022/07/27 00:33:04;;;;;;;0.63;0.22;;;;;19.90;101887.00;;;;5049521;28;20200;-76
2022/07/27 00:35:32;;;;;;;1.67;0.40;;;;;19.90;101879.00;;;;5049335;28;20215;-76
2022/07/27 00:37:59;;;;;;;10.75;0.68;;;;;19.80;101880.00;;;;5048782;28;20195;-76
2022/07/27 00:40:27;;;;;;;0.70;0.40;;;;;19.80;101881.00;;;;5048742;28;20582;-76
2022/07/27 00:42:56;;;;;;;0.38;0.13;;;;;19.80;101877.00;;;;5048616;28;20215;-76
2022/07/27 00:45:23;;;;;;;2.67;0.95;;;;;19.70;101879.00;;;;5048292;28;20204;-76
2022/07/27 00:47:50;;;;;;;2.78;0.75;;;;;19.70;101880.00;;;;5034557;28;20685;-76
2022/07/27 00:50:17;;;;;;;0.52;0.28;;;;;19.70;101882.00;;;;5044888;28;20207;-76
2022/07/27 00:52:45;;;;;;;1.52;0.40;;;;;19.70;101875.00;;;;5048862;28;20216;-76
2022/07/27 00:55:12;;;;;;;1.08;0.40;;;;;19.60;101875.00;;;;5047650;28;20226;-76
2022/07/27 00:57:42;;;;;;;0.68;0.30;;;;;19.60;101871.00;;;;5048960;28;20218;-76
2022/07/27 01:00:11;;;;;;;1.10;0.40;;;;;19.50;101879.00;;;;5048207;28;20204;-76
2022/07/27 01:02:39;;;;;;;0.95;0.38;;;;;19.50;101882.00;;;;5048275;28;20195;-76
2022/07/27 01:05:06;;;;;;;0.82;0.43;;;;;19.50;101882.00;;;;5037145;28;20202;-76
2022/07/27 01:07:34;;;;;;;1.55;0.50;;;;;19.50;101874.00;;;;5048708;28;20195;-76
2022/07/27 01:10:01;;;;;;;0.50;0.30;;;;;19.50;101877.00;;;;5049140;28;20191;-76
2022/07/27 01:12:31;;;;;;;0.68;0.32;;;;;19.40;101881.00;;;;5048923;28;20195;-76
2022/07/27 01:14:59;;;;;;;1.85;0.70;;;;;19.40;101872.00;;;;5048114;28;20187;-76
2022/07/27 01:17:29;;;;;;;1.27;0.43;;;;;19.40;101877.00;;;;5048562;28;20763;-76
2022/07/27 01:19:57;;;;;;;0.95;0.40;;;;;19.40;101878.00;;;;5044696;28;20228;-76
2022/07/27 01:22:26;;;;;;;0.90;0.47;;;;;19.30;101875.00;;;;5046872;28;20269;-76
2022/07/27 01:24:54;;;;;;;1.05;0.50;;;;;19.30;101873.00;;;;5041762;28;20663;-76
2022/07/27 01:27:21;;;;;;;1.85;0.50;;;;;19.30;101869.00;;;;5038005;28;20215;-76
2022/07/27 01:29:49;;;;;;;3.25;0.90;;;;;19.30;101874.00;;;;5048153;28;20211;-76
2022/07/27 01:32:16;;;;;;;0.70;0.45;;;;;19.30;101873.00;;;;5047986;28;20199;-76
2022/07/27 01:34:44;;;;;;;0.32;0.20;;;;;19.20;101878.00;;;;5048191;28;20202;-76
2022/07/27 01:37:11;;;;;;;0.57;0.30;;;;;19.20;101882.00;;;;5041997;28;20235;-76
2022/07/27 01:39:39;;;;;;;2.42;0.60;;;;;19.20;101875.00;;;;5032885;28;20669;-76
2022/07/27 01:42:07;;;;;;;0.35;0.32;;;;;19.20;101875.00;;;;5048257;28;20756;-76
2022/07/27 01:44:34;;;;;;;0.75;0.57;;;;;19.20;101878.00;;;;5047855;28;20211;-76
2022/07/27 01:47:01;;;;;;;0.68;0.30;;;;;19.10;101865.00;;;;5047944;28;20195;-76
2022/07/27 01:49:29;;;;;;;0.68;0.35;;;;;19.10;101869.00;;;;5047113;28;20195;-76
2022/07/27 01:51:56;;;;;;;1.73;0.50;;;;;19.10;101865.00;;;;5047679;28;20194;-76
2022/07/27 01:54:23;;;;;;;0.50;0.40;;;;;19.10;101862.00;;;;5042981;28;20211;-76
2022/07/27 01:56:52;;;;;;;1.50;0.30;;;;;19.00;101864.00;;;;5047655;28;20242;-76
2022/07/27 01:59:19;;;;;;;1.63;0.50;;;;;19.00;101857.00;;;;5048217;28;20200;-76
2022/07/27 02:01:46;;;;;;;1.00;0.50;;;;;19.00;101873.00;;;;5047291;28;20199;-75
2022/07/27 02:04:14;;;;;;;0.93;0.40;;;;;19.00;101863.00;;;;5047307;28;20203;-75
2022/07/27 02:06:41;;;;;;;1.50;0.50;;;;;19.00;101864.00;;;;5048297;28;20199;-76
2022/07/27 02:09:08;;;;;;;0.90;0.43;;;;;19.00;101870.00;;;;5047308;28;20252;-76
2022/07/27 02:14:21;;;;;;;1.20;0.30;;;;;18.90;101860.00;;;;5028858;28;20211;-75
2022/07/27 02:16:49;;;;;;;0.50;0.32;;;;;18.90;101862.00;;;;5047862;28;20219;-76
2022/07/27 02:19:16;;;;;;;1.40;0.38;;;;;18.90;101869.00;;;;5046909;28;20188;-76
2022/07/27 02:21:43;;;;;;;1.90;0.40;;;;;18.90;101864.00;;;;5047581;28;20192;-76
2022/07/27 02:24:10;;;;;;;0.77;0.32;;;;;18.90;101861.00;;;;5046952;28;20203;-76
2022/07/27 02:26:37;;;;;;;2.75;0.80;;;;;18.90;101856.00;;;;5047176;28;20662;-76
2022/07/27 02:29:05;;;;;;;1.95;0.68;;;;;18.80;101858.00;;;;5034534;28;20207;-76
2022/07/27 02:31:34;;;;;;;0.77;0.30;;;;;18.80;101854.00;;;;5031182;28;20195;-76
2022/07/27 02:34:01;;;;;;;2.30;0.65;;;;;18.80;101852.00;;;;5047301;28;20199;-76
2022/07/27 02:36:29;;;;;;;0.98;0.52;;;;;18.80;101854.00;;;;5046486;28;20410;-76
2022/07/27 02:38:56;;;;;;;0.82;0.40;;;;;18.80;101852.00;;;;5047549;28;20214;-76
2022/07/27 02:41:23;;;;;;;0.73;0.43;;;;;18.80;101849.00;;;;5046969;28;20199;-76
2022/07/27 02:43:51;;;;;;;0.50;0.38;;;;;18.70;101844.00;;;;5047564;28;20198;-76
2022/07/27 02:46:18;;;;;;;0.50;0.50;;;;;18.70;101848.00;;;;5046499;28;20207;-76
2022/07/27 02:48:47;;;;;;;1.35;0.65;;;;;18.70;101849.00;;;;5046415;28;20199;-76
2022/07/27 02:51:14;;;;;;;0.90;0.50;;;;;18.70;101849.00;;;;5046564;28;20196;-76
2022/07/27 02:53:42;;;;;;;0.40;0.30;;;;;18.70;101847.00;;;;5047469;28;20215;-76
2022/07/27 02:56:09;;;;;;;0.50;0.28;;;;;18.70;101844.00;;;;5046582;28;20227;-75
2022/07/27 02:58:37;;;;;;;0.95;0.40;;;;;18.60;101845.00;;;;5047093;28;20199;-76
2022/07/27 03:01:04;;;;;;;1.25;0.50;;;;;18.60;101847.00;;;;5047014;28;20677;-76
2022/07/27 03:03:32;;;;;;;1.50;0.40;;;;;18.60;101846.00;;;;5040133;28;20200;-76
2022/07/27 03:06:00;;;;;;;0.63;0.50;;;;;18.60;101839.00;;;;5047762;28;20672;-76
2022/07/27 03:08:28;;;;;;;0.65;0.32;;;;;18.60;101841.00;;;;5051788;28;20748;-76
2022/07/27 03:10:55;;;;;;;0.43;0.30;;;;;18.60;101837.00;;;;5051099;28;20198;-76
2022/07/27 03:13:22;;;;;;;0.40;0.40;;;;;18.50;101845.00;;;;5051423;28;20596;-76
2022/07/27 03:15:49;;;;;;;0.40;0.30;;;;;18.50;101845.00;;;;5051549;28;20191;-76
2022/07/27 03:18:17;;;;;;;1.45;0.40;;;;;18.50;101837.00;;;;5050764;28;20741;-76
2022/07/27 03:20:44;;;;;;;1.73;1.02;;;;;18.50;101843.00;;;;5046809;28;20210;-76
2022/07/27 03:23:12;;;;;;;0.45;0.30;;;;;18.50;101849.00;;;;5050602;28;20200;-76
2022/07/27 03:25:40;;;;;;;0.50;0.30;;;;;18.50;101844.00;;;;5049844;28;20196;-76
2022/07/27 03:28:07;;;;;;;1.38;0.45;;;;;18.50;101847.00;;;;5040346;28;20670;-76
2022/07/27 03:30:34;;;;;;;1.15;0.35;;;;;18.40;101842.00;;;;5041890;28;20195;-77
2022/07/27 03:33:02;;;;;;;0.60;0.43;;;;;18.40;101849.00;;;;5050727;28;20207;-77
2022/07/27 03:35:29;;;;;;;1.17;0.50;;;;;18.40;101844.00;;;;5050104;28;20207;-77
2022/07/27 03:37:56;;;;;;;1.20;0.55;;;;;18.40;101852.00;;;;5050553;28;20231;-77
2022/07/27 03:40:28;;;;;;;0.80;0.40;;;;;18.40;101850.00;;;;5050899;28;20208;-77
2022/07/27 03:42:55;;;;;;;0.73;0.40;;;;;18.40;101849.00;;;;5050928;28;20662;-77
2022/07/27 03:45:22;;;;;;;1.60;0.55;;;;;18.30;101854.00;;;;5050004;28;20195;-76
2022/07/27 03:47:49;;;;;;;0.90;0.50;;;;;18.30;101849.00;;;;5051055;28;20208;-77
2022/07/27 03:50:17;;;;;;;0.82;0.43;;;;;18.30;101852.00;;;;5050758;28;20202;-77
2022/07/27 03:52:44;;;;;;;1.23;0.50;;;;;18.30;101860.00;;;;5048104;28;20337;-77
2022/07/27 03:55:11;;;;;;;0.98;0.40;;;;;18.30;101856.00;;;;5037815;28;20227;-77
2022/07/27 03:57:40;;;;;;;0.63;0.38;;;;;18.30;101861.00;;;;5051072;28;20226;-77
2022/07/27 04:00:10;;;;;;;0.60;0.30;;;;;18.30;101858.00;;;;5050538;28;20199;-77
2022/07/27 04:02:38;;;;;;;1.27;0.60;;;;;18.20;101856.00;;;;5050388;28;20191;-77
2022/07/27 04:05:06;;;;;;;0.65;0.43;;;;;18.20;101858.00;;;;5049601;28;20188;-76
2022/07/27 04:07:33;;;;;;;1.30;0.50;;;;;18.20;101855.00;;;;5050424;28;20199;-77
2022/07/27 04:10:01;;;;;;;0.85;0.40;;;;;18.20;101856.00;;;;5046042;28;20208;-76
2022/07/27 04:12:28;;;;;;;1.20;0.70;;;;;18.20;101854.00;;;;5049537;28;20394;-76
2022/07/27 04:14:57;;;;;;;0.90;0.60;;;;;18.20;101856.00;;;;5061900;28;20196;-77
2022/07/27 04:17:24;;;;;;;0.30;0.20;;;;;18.20;101855.00;;;;5049084;28;20230;-77
2022/07/27 04:19:51;;;;;;;1.15;0.45;;;;;18.20;101862.00;;;;5046041;28;20211;-77
2022/07/27 04:22:18;;;;;;;0.60;0.50;;;;;18.20;101864.00;;;;5049966;28;20199;-76
2022/07/27 04:24:49;;;;;;;0.70;0.50;;;;;18.10;101860.00;;;;5050022;28;20204;-76
2022/07/27 04:27:16;;;;;;;1.52;0.68;;;;;18.20;101863.00;;;;5040271;28;20222;-77
2022/07/27 04:29:43;;;;;;;1.52;0.60;;;;;18.20;101859.00;;;;5033733;28;20191;-76
2022/07/27 04:32:12;;;;;;;0.70;0.43;;;;;18.20;101864.00;;;;5049232;28;20199;-76
2022/07/27 04:34:39;;;;;;;1.23;0.73;;;;;18.20;101865.00;;;;5049105;28;20208;-77
2022/07/27 04:37:07;;;;;;;1.38;0.60;;;;;18.20;101872.00;;;;5049032;28;20227;-76
2022/07/27 04:39:34;;;;;;;0.73;0.50;;;;;18.20;101870.00;;;;5049577;28;20203;-76
2022/07/27 04:42:01;;;;;;;2.47;0.90;;;;;18.20;101876.00;;;;5048793;28;20192;-77
2022/07/27 04:44:28;;;;;;;1.38;0.70;;;;;18.20;101875.00;;;;5045326;28;20196;-76
2022/07/27 04:46:56;;;;;;;1.30;0.60;;;;;18.20;101877.00;;;;5048780;28;20199;-76
2022/07/27 04:49:24;;;;;;;1.23;0.60;;;;;18.20;101876.00;;;;5048727;28;20286;-76
2022/07/27 04:51:52;;;;;;;1.08;0.60;;;;;18.20;101891.00;;;;5049175;28;20199;-76
2022/07/27 04:54:19;;;;;;;2.17;0.57;;;;;18.20;101886.00;;;;5048479;28;20235;-77
2022/07/27 04:56:46;;;;;;;1.20;0.65;;;;;18.20;101883.00;;;;5048078;28;20238;-76
2022/07/27 04:59:16;;;;;;;1.10;0.50;;;;;18.30;101876.00;;;;5049404;28;20195;-76
2022/07/27 05:01:44;;;;;;;2.47;0.80;;;;;18.30;101886.00;;;;5043780;28;20199;-76
2022/07/27 05:04:11;;;;;;;2.17;0.68;;;;;18.30;101884.00;;;;5037012;28;21028;-76
2022/07/27 05:06:39;;;;;;;1.67;0.63;;;;;18.30;101880.00;;;;5049430;28;20203;-76
2022/07/27 05:09:07;;;;;;;5.85;1.02;;;;;18.30;101882.00;;;;5031920;28;20206;-77
2022/07/27 05:11:34;;;;;;;3.72;1.08;;;;;18.30;101889.00;;;;5048539;28;20218;-76
2022/07/27 05:14:02;;;;;;;3.70;0.93;;;;;18.40;101891.00;;;;5048576;28;20207;-76
2022/07/27 05:16:30;;;;;;;2.47;1.05;;;;;18.40;101890.00;;;;5047854;28;20219;-77
2022/07/27 05:18:57;;;;;;;3.10;1.05;;;;;18.50;101892.00;;;;5040839;28;20219;-76
2022/07/27 05:21:24;;;;;;;3.47;0.57;;;;;18.50;101890.00;;;;5048567;28;20206;-76
2022/07/27 05:23:54;;;;;;;2.90;0.90;;;;;18.50;101904.00;;;;5048618;28;20199;-76
2022/07/27 05:26:22;;;;;;;2.03;0.98;;;;;18.60;101908.00;;;;5048423;28;21040;-76
2022/07/27 05:28:49;;;;;;;3.15;1.58;;;;;18.60;101905.00;;;;5047748;28;20623;-76
2022/07/27 05:31:17;;;;;;;2.83;0.90;;;;;18.70;101913.00;;;;5048172;28;20203;-77
2022/07/27 05:33:44;;;;;;;8.48;1.08;;;;;18.70;101912.00;;;;5048099;28;20646;-76
2022/07/27 05:36:12;;;;;;;1.83;0.80;;;;;18.80;101903.00;;;;5044457;28;20253;-76
2022/07/27 05:38:39;;;;;;;2.50;0.90;;;;;18.90;101918.00;;;;5048169;28;20211;-76
2022/07/27 05:41:08;;;;;;;2.95;0.80;;;;;18.90;101922.00;;;;5048006;28;20701;-76
2022/07/27 05:43:36;;;;;;;1.70;0.77;;;;;19.00;101918.00;;;;5048207;28;20203;-77
2022/07/27 05:46:03;;;;;;;4.20;0.93;;;;;19.00;101933.00;;;;5048158;28;20195;-76
2022/07/27 05:48:30;;;;;;;1.10;0.70;;;;;19.10;101927.00;;;;5046880;28;20199;-76
2022/07/27 05:50:58;;;;;;;3.90;1.05;;;;;19.20;101918.00;;;;5044087;28;20684;-76
2022/07/27 05:53:25;;;;;;;0.75;0.50;;;;;19.20;101924.00;;;;5031656;28;20257;-76
2022/07/27 05:55:53;;;;;;;1.83;0.73;;;;;19.30;101919.00;;;;5044297;28;20697;-76
2022/07/27 05:58:21;;;;;;;1.00;0.40;;;;;19.40;101923.00;;;;5047891;28;20314;-76
2022/07/27 06:00:50;;;;;;;5.45;1.42;;;;;19.40;101923.00;;;;5047171;28;20196;-76
2022/07/27 06:03:17;;;;;;;6.50;1.60;;;;;19.50;101929.00;;;;5048008;28;20195;-76
2022/07/27 06:05:44;;;;;;;4.55;1.55;;;;;19.60;101932.00;;;;5047650;28;20231;-77
2022/07/27 06:08:11;;;;;;;4.75;1.10;;;;;19.60;101934.00;;;;5046639;28;20192;-76
2022/07/27 06:10:39;;;;;;;3.05;0.75;;;;;19.70;101941.00;;;;5037184;28;20688;-77
2022/07/27 06:13:09;;;;;;;1.08;0.60;;;;;19.70;101936.00;;;;5067777;28;20227;-77
2022/07/27 06:15:39;;;;;;;2.65;0.45;;;;;19.80;101938.00;;;;5051496;28;20203;-77
2022/07/27 06:18:12;;;;;;;2.15;0.60;;;;;19.90;101945.00;;;;5047143;28;20223;-77
2022/07/27 06:20:41;;;;;;;4.18;0.65;;;;;20.00;101950.00;;;;5046967;28;20199;-77
2022/07/27 06:23:09;;;;;;;2.35;0.95;;;;;20.10;101940.00;;;;5047827;28;20275;-77
2022/07/27 06:25:37;;;;;;;2.95;1.10;;;;;20.20;101938.00;;;;5046355;28;20199;-77
2022/07/27 06:28:05;;;;;;;1.45;0.70;;;;;20.30;101939.00;;;;5045843;28;20191;-76
2022/07/27 06:30:32;;;;;;;1.88;0.82;;;;;20.40;101930.00;;;;5047494;28;20204;-76
2022/07/27 06:33:03;;;;;;;1.75;0.60;;;;;20.50;101932.00;;;;5047442;28;20253;-76
2022/07/27 06:35:30;;;;;;;2.42;0.90;;;;;20.70;101934.00;;;;5046776;28;20245;-77
2022/07/27 06:37:57;;;;;;;2.28;0.95;;;;;20.80;101932.00;;;;5046721;28;20211;-76
2022/07/27 06:40:25;;;;;;;3.05;0.50;;;;;20.90;101932.00;;;;5047365;28;20196;-76
2022/07/27 06:42:53;;;;;;;1.50;0.50;;;;;21.00;101931.00;;;;5047136;28;20208;-77
2022/07/27 06:45:20;;;;;;;0.80;0.47;;;;;21.10;101942.00;;;;5045094;28;20231;-76
2022/07/27 06:47:49;;;;;;;2.75;0.63;;;;;21.30;101943.00;;;;5051154;28;20241;-76
2022/07/27 06:50:19;;;;;;;8.45;0.68;;;;;21.40;101941.00;;;;5051157;28;20242;-76
2022/07/27 06:52:46;;;;;;;0.73;0.30;;;;;21.60;101938.00;;;;5051272;28;20215;-76
2022/07/27 06:55:13;;;;;;;1.20;0.55;;;;;21.70;101935.00;;;;5050534;28;20685;-77
2022/07/27 06:57:41;;;;;;;2.53;0.60;;;;;21.80;101927.00;;;;5051380;28;20230;-77
2022/07/27 07:00:11;;;;;;;1.52;0.45;;;;;21.90;101930.00;;;;5049330;28;20196;-76
2022/07/27 07:02:39;;;;;;;1.95;0.30;;;;;22.00;101934.00;;;;5051585;28;20265;-76
2022/07/27 07:05:06;;;;;;;2.47;0.63;;;;;22.10;101929.00;;;;5050734;28;20194;-76
2022/07/27 07:07:35;;;;;;;0.65;0.35;;;;;22.20;101933.00;;;;5051116;28;20203;-77
2022/07/27 07:10:03;;;;;;;0.57;0.32;;;;;22.30;101938.00;;;;5050194;28;20199;-77
2022/07/27 07:12:30;;;;;;;3.13;1.13;;;;;22.40;101943.00;;;;5050656;28;20195;-76
2022/07/27 07:14:58;;;;;;;0.88;0.38;;;;;22.50;101952.00;;;;5050606;28;20930;-77
2022/07/27 07:17:25;;;;;;;1.23;0.43;;;;;22.60;101947.00;;;;5046538;28;20196;-77
2022/07/27 07:19:52;;;;;;;1.60;0.60;;;;;22.70;101948.00;;;;5050496;28;20198;-76
2022/07/27 07:22:19;;;;;;;2.08;0.60;;;;;22.90;101956.00;;;;5050090;28;20195;-76
2022/07/27 07:24:48;;;;;;;2.05;0.52;;;;;23.00;101956.00;;;;5050507;28;20689;-77
2022/07/27 07:27:18;;;;;;;3.40;0.52;;;;;23.10;101956.00;;;;5049984;28;20195;-76
2022/07/27 07:29:45;;;;;;;1.27;0.40;;;;;23.20;101955.00;;;;5050567;28;20207;-77
2022/07/27 07:32:12;;;;;;;2.70;0.35;;;;;23.30;101955.00;;;;5049243;28;20202;-77
2022/07/27 07:34:40;;;;;;;2.33;0.50;;;;;23.40;101955.00;;;;5045854;28;20203;-76
2022/07/27 07:37:07;;;;;;;1.05;0.43;;;;;23.50;101952.00;;;;5050185;28;20190;-76
2022/07/27 07:39:35;;;;;;;1.25;0.50;;;;;23.50;101955.00;;;;5049577;28;20226;-76
2022/07/27 07:42:04;;;;;;;2.47;0.80;;;;;23.60;101956.00;;;;5049785;28;20200;-76
2022/07/27 07:44:31;;;;;;;4.78;0.88;;;;;23.70;101959.00;;;;5050285;28;20658;-76
2022/07/27 07:46:58;;;;;;;1.08;0.63;;;;;23.80;101958.00;;;;5049956;28;20196;-77
2022/07/27 07:49:26;;;;;;;2.47;0.32;;;;;23.80;101963.00;;;;5050009;28;20194;-76
2022/07/27 07:51:53;;;;;;;0.93;0.45;;;;;23.90;101963.00;;;;5047840;28;20694;-76
2022/07/27 07:54:23;;;;;;;1.77;0.32;;;;;24.00;101970.00;;;;5048190;28;20223;-76
2022/07/27 07:56:50;;;;;;;2.95;0.70;;;;;24.10;101968.00;;;;5050477;28;20231;-76
2022/07/27 07:59:19;;;;;;;2.05;0.70;;;;;24.20;101964.00;;;;5050834;28;20230;-76
2022/07/27 08:01:47;;;;;;;0.80;0.32;;;;;24.30;101972.00;;;;5050273;28;20227;-77
2022/07/27 08:04:14;;;;;;;1.27;0.50;;;;;24.40;101967.00;;;;5050116;28;20203;-76
2022/07/27 08:06:41;;;;;;;2.33;0.63;;;;;24.60;101963.00;;;;5050601;28;20203;-76
2022/07/27 08:09:08;;;;;;;2.15;0.47;;;;;24.70;101964.00;;;;5038403;28;20211;-77
2022/07/27 08:11:37;;;;;;;1.75;0.50;;;;;24.90;101977.00;;;;5049831;28;20195;-76
2022/07/27 08:14:04;;;;;;;1.65;0.45;;;;;24.90;101974.00;;;;5049934;28;20203;-76
2022/07/27 08:16:33;;;;;;;5.68;0.50;;;;;25.00;101976.00;;;;5049954;28;20575;-77
2022/07/27 08:19:00;;;;;;;2.05;0.52;;;;;25.00;101981.00;;;;5049903;28;20603;-77
2022/07/27 08:21:28;;;;;;;2.83;0.50;;;;;25.00;101987.00;;;;5049872;28;20195;-77
2022/07/27 08:23:55;;;;;;;1.23;0.45;;;;;25.00;101980.00;;;;5050075;28;20204;-77
2022/07/27 08:26:22;;;;;;;0.75;0.38;;;;;24.90;101982.00;;;;5048996;28;20210;-77
2022/07/27 08:28:49;;;;;;;1.23;0.30;;;;;24.90;101981.00;;;;5049109;28;20817;-77
2022/07/27 08:31:17;;;;;;;0.65;0.40;;;;;24.90;101988.00;;;;5048770;28;20681;-77
2022/07/27 08:33:45;;;;;;;1.95;0.35;;;;;24.80;101982.00;;;;5049161;28;20195;-77
2022/07/27 08:36:13;;;;;;;1.00;0.20;;;;;24.70;101985.00;;;;5049294;28;20195;-76
2022/07/27 08:38:40;;;;;;;1.95;0.30;;;;;24.70;101989.00;;;;5049472;28;20228;-77
2022/07/27 08:41:10;;;;;;;2.38;0.68;;;;;24.70;101992.00;;;;5048388;28;20191;-77
2022/07/27 08:43:37;;;;;;;1.70;0.28;;;;;24.70;101995.00;;;;5047587;28;20662;-77
2022/07/27 08:46:05;;;;;;;0.82;0.32;;;;;24.70;101987.00;;;;5049264;28;20191;-77
2022/07/27 08:48:32;;;;;;;1.13;0.40;;;;;24.80;101992.00;;;;5048506;28;20689;-77
2022/07/27 08:51:01;;;;;;;0.65;0.13;;;;;24.90;101986.00;;;;5048501;28;20191;-76
2022/07/27 08:53:31;;;;;;;0.70;0.32;;;;;25.00;101984.00;;;;5049912;28;20230;-76
2022/07/27 08:55:59;;;;;;;2.85;0.55;;;;;25.10;101980.00;;;;5048656;28;20270;-77
2022/07/27 08:58:27;;;;;;;0.68;0.30;;;;;25.30;101977.00;;;;5048284;28;20231;-77
2022/07/27 09:00:54;;;;;;;1.83;0.40;;;;;25.40;101977.00;;;;5036901;28;20686;-76
2022/07/27 09:03:22;;;;;;;1.17;0.20;;;;;25.60;101982.00;;;;5048425;28;20211;-77
2022/07/27 09:05:52;;;;;;;2.35;0.40;;;;;25.70;101980.00;;;;5047640;28;21049;-76
2022/07/27 09:08:22;;;;;;;0.82;0.40;;;;;25.90;101970.00;;;;5048563;28;20712;-77
2022/07/27 09:10:51;;;;;;;1.20;0.52;;;;;26.10;101966.00;;;;5048947;28;20208;-76
2022/07/27 09:13:23;;;;;;;1.48;0.50;;;;;26.10;101978.00;;;;5048736;28;20210;-76
2022/07/27 09:15:53;;;;;;;4.15;0.50;;;;;26.30;101981.00;;;;5035129;28;20203;-77
2022/07/27 09:18:22;;;;;;;0.35;0.28;;;;;26.40;101976.00;;;;5044108;28;20215;-76
2022/07/27 09:21:07;;;;;;;1.77;0.32;;;;;26.50;101981.00;;;;5048536;28;20199;-76
2022/07/27 09:23:37;;;;;;;1.70;0.30;;;;;26.60;101990.00;;;;5048777;28;20242;-76
2022/07/27 09:26:12;;;;;;;0.50;0.35;;;;;26.70;101983.00;;;;5048673;28;20200;-76
2022/07/27 09:28:40;;;;;;;0.40;0.30;;;;;26.80;101983.00;;;;5047176;28;20198;-77
2022/07/27 09:31:08;;;;;;;1.85;0.40;;;;;26.90;101983.00;;;;5048204;28;20226;-76
2022/07/27 09:33:42;;;;;;;1.27;0.25;;;;;27.00;101982.00;;;;5039927;28;20270;-77
2022/07/27 09:36:11;;;;;;;0.15;0.10;;;;;27.20;101980.00;;;;5048192;28;20277;-77
2022/07/27 09:38:51;;;;;;;1.20;0.45;;;;;27.30;101975.00;;;;5047952;28;20599;-77
2022/07/27 09:41:18;;;;;;;0.90;0.30;;;;;27.40;101989.00;;;;5047582;28;20203;-77
2022/07/27 09:43:47;;;;;;;1.52;0.50;;;;;27.50;101984.00;;;;5047690;28;20204;-77
2022/07/27 09:46:15;;;;;;;0.55;0.35;;;;;27.60;101979.00;;;;5047830;28;20206;-76
2022/07/27 09:48:42;;;;;;;0.50;0.30;;;;;27.50;101985.00;;;;5047549;28;20196;-75
2022/07/27 09:51:11;;;;;;;0.52;0.20;;;;;27.50;101982.00;;;;5039713;28;20199;-75
2022/07/27 09:53:40;;;;;;;0.80;0.40;;;;;27.50;101987.00;;;;5027913;28;20267;-75
2022/07/27 09:56:09;;;;;;;2.35;0.43;;;;;27.40;101984.00;;;;5047018;28;20646;-75
2022/07/27 09:58:43;;;;;;;3.28;0.85;;;;;27.20;101985.00;;;;5047804;28;20226;-75
2022/07/27 10:01:11;;;;;;;0.93;0.30;;;;;27.20;101991.00;;;;5046972;28;20206;-75
2022/07/27 10:03:40;;;;;;;5.15;0.43;;;;;27.10;101989.00;;;;5047005;28;20215;-75
2022/07/27 10:06:08;;;;;;;0.95;0.20;;;;;27.00;101986.00;;;;5044758;28;20207;-75
2022/07/27 10:08:39;;;;;;;0.40;0.20;;;;;27.00;101984.00;;;;5043801;28;20200;-75
2022/07/27 10:11:07;;;;;;;0.60;0.30;;;;;27.10;101985.00;;;;5047605;28;20192;-75
2022/07/27 10:13:35;;;;;;;1.73;0.60;;;;;27.20;101983.00;;;;5047437;28;20195;-75
2022/07/27 10:16:04;;;;;;;1.80;0.40;;;;;27.30;101985.00;;;;5045773;28;20196;-75
2022/07/27 10:18:45;;;;;;;0.52;0.40;;;;;27.30;101987.00;;;;5046876;28;20258;-75
2022/07/27 10:21:13;;;;;;;1.02;0.45;;;;;27.50;101979.00;;;;5044012;28;20206;-75
2022/07/27 10:23:53;;;;;;;0.80;0.40;;;;;27.60;101983.00;;;;5047263;28;20195;-75
2022/07/27 10:26:29;;;;;;;1.80;0.47;;;;;27.70;101980.00;;;;5044980;28;20281;-75
2022/07/27 10:28:59;;;;;;;1.65;0.35;;;;;27.80;101988.00;;;;5047009;28;20195;-75
2022/07/27 10:31:28;;;;;;;0.75;0.20;;;;;27.90;101995.00;;;;5046654;28;20198;-75
2022/07/27 10:33:58;;;;;;;3.75;0.60;;;;;28.00;101984.00;;;;5047678;28;20200;-75
2022/07/27 10:36:47;;;;;;;0.52;0.30;;;;;28.00;101980.00;;;;5047444;28;20677;-75
2022/07/27 10:39:33;;;;;;;1.02;0.52;;;;;28.10;101980.00;;;;5046137;28;20238;-76
2022/07/27 10:42:20;;;;;;;1.25;0.40;;;;;28.30;101973.00;;;;5035331;28;20563;-75
2022/07/27 10:44:56;;;;;;;0.55;0.45;;;;;28.50;101976.00;;;;5045594;28;20203;-76
2022/07/27 10:47:49;;;;;;;1.85;0.50;;;;;28.40;101989.00;;;;5044705;28;20195;-75
2022/07/27 10:50:22;;;;;;;1.10;0.32;;;;;28.50;101989.00;;;;5029043;28;20285;-76
2022/07/27 10:52:51;;;;;;;1.75;0.40;;;;;28.40;101990.00;;;;5047581;28;20908;-77
2022/07/27 10:55:43;;;;;;;0.80;0.40;;;;;28.10;101985.00;;;;5046207;28;20346;-75
2022/07/27 10:58:46;;;;;;;0.63;0.40;;;;;28.00;101987.00;;;;5037708;28;20191;-76
2022/07/27 11:01:15;;;;;;;0.77;0.30;;;;;28.00;101987.00;;;;5046448;28;20203;-76
2022/07/27 11:03:46;;;;;;;1.08;0.45;;;;;27.80;101983.00;;;;5047079;28;20192;-76
2022/07/27 11:06:21;;;;;;;1.98;0.60;;;;;27.70;101974.00;;;;5046261;28;20236;-76
2022/07/27 11:08:50;;;;;;;1.45;0.40;;;;;27.60;101985.00;;;;5046807;28;20196;-76
2022/07/27 11:11:20;;;;;;;0.57;0.45;;;;;27.50;101970.00;;;;5047027;28;20207;-76
2022/07/27 11:13:50;;;;;;;1.60;0.30;;;;;27.40;101973.00;;;;5047134;28;20203;-76
2022/07/27 11:16:18;;;;;;;0.50;0.43;;;;;27.40;101969.00;;;;5032050;28;20246;-76
2022/07/27 11:18:54;;;;;;;0.88;0.40;;;;;27.20;101974.00;;;;5045903;28;20286;-76
2022/07/27 11:21:22;;;;;;;1.58;0.52;;;;;27.30;101966.00;;;;5046510;28;20194;-76
2022/07/27 11:23:52;;;;;;;1.58;0.40;;;;;27.30;101968.00;;;;5046858;28;20207;-76
2022/07/27 11:26:22;;;;;;;2.50;0.73;;;;;27.30;101958.00;;;;5046925;28;20203;-76
2022/07/27 11:28:49;;;;;;;1.80;0.38;;;;;27.40;101955.00;;;;5049497;28;20214;-75
2022/07/27 11:31:17;;;;;;;1.10;0.55;;;;;27.50;101955.00;;;;5050928;28;20207;-76
2022/07/27 11:33:56;;;;;;;1.25;0.38;;;;;27.40;101950.00;;;;5035617;28;20207;-76
2022/07/27 11:36:37;;;;;;;0.70;0.28;;;;;27.60;101955.00;;;;5050178;28;20192;-75
2022/07/27 11:39:06;;;;;;;1.42;0.68;;;;;27.60;101956.00;;;;5049102;28;20215;-76
2022/07/27 11:41:36;;;;;;;0.80;0.22;;;;;27.60;101965.00;;;;5050616;28;20960;-76
2022/07/27 11:44:12;;;;;;;2.63;0.50;;;;;27.70;101954.00;;;;5050478;28;20195;-76
2022/07/27 11:46:42;;;;;;;1.10;0.30;;;;;27.70;101960.00;;;;5049713;28;20195;-75
2022/07/27 11:49:11;;;;;;;0.90;0.30;;;;;27.70;101957.00;;;;5048821;28;20196;-75
2022/07/27 11:51:41;;;;;;;1.10;0.47;;;;;27.70;101952.00;;;;5050490;28;20203;-75
2022/07/27 11:54:11;;;;;;;0.30;0.28;;;;;27.80;101957.00;;;;5049884;28;20211;-76
2022/07/27 11:56:43;;;;;;;0.65;0.20;;;;;27.80;101951.00;;;;5049835;28;20224;-76
2022/07/27 11:59:13;;;;;;;0.50;0.32;;;;;27.80;101963.00;;;;5050275;28;20567;-76
2022/07/27 12:01:43;;;;;;;1.58;0.28;;;;;27.80;101964.00;;;;5049704;28;20274;-76
2022/07/27 12:04:20;;;;;;;1.20;0.40;;;;;27.70;101966.00;;;;5049442;28;20192;-76
2022/07/27 12:06:55;;;;;;;0.75;0.30;;;;;27.70;101966.00;;;;5047326;28;20203;-76
2022/07/27 12:09:24;;;;;;;0.35;0.25;;;;;27.70;101962.00;;;;5049743;28;20211;-76
2022/07/27 12:11:55;;;;;;;0.80;0.35;;;;;27.60;101954.00;;;;5049623;28;20261;-76
2022/07/27 12:14:33;;;;;;;1.77;0.47;;;;;27.50;101951.00;;;;5049587;28;20192;-76
2022/07/27 12:17:17;;;;;;;0.55;0.20;;;;;27.50;101959.00;;;;5049642;28;20191;-76
2022/07/27 12:19:52;;;;;;;0.63;0.30;;;;;27.40;101947.00;;;;5050601;28;20222;-76